sensor_id;sensor_type;location;lat;lon;timestamp;P1;durP1;ratioP1;P2;durP2;ratioP2
34645;SDS011;20857;47.808;12.482;2022-10-16T00:01:23;4.28;;;1.90;;
34645;SDS011;20857;47.808;12.482;2022-10-16T00:03:51;5.63;;;2.10;;
34645;SDS011;20857;47.808;12.482;2022-10-16T00:06:18;3.63;;;1.48;;
34645;SDS011;20857;47.808;12.482;2022-10-16T00:08:45;4.57;;;1.73;;
34645;SDS011;20857;47.808;12.482;2022-10-16T00:11:12;4.88;;;1.80;;
34645;SDS011;20857;47.808;12.482;2022-10-16T00:13:45;1.50;;;1.40;;
34645;SDS011;20857;47.808;12.482;2022-10-16T00:16:12;5.53;;;1.38;;
34645;SDS011;20857;47.808;12.482;2022-10-16T00:18:39;4.20;;;1.50;;
34645;SDS011;20857;47.808;12.482;2022-10-16T00:21:09;2.05;;;1.60;;
34645;SDS011;20857;47.808;12.482;2022-10-16T00:23:40;1.67;;;0.85;;
34645;SDS011;20857;47.808;12.482;2022-10-16T00:26:10;3.10;;;1.60;;
34645;SDS011;20857;47.808;12.482;2022-10-16T00:28:38;11.70;;;1.80;;
34645;SDS011;20857;47.808;12.482;2022-10-16T00:31:08;2.35;;;1.48;;
34645;SDS011;20857;47.808;12.482;2022-10-16T00:33:35;6.07;;;1.60;;
34645;SDS011;20857;47.808;12.482;2022-10-16T00:36:02;4.07;;;1.67;;
34645;SDS011;20857;47.808;12.482;2022-10-16T00:38:29;1.60;;;1.30;;
34645;SDS011;20857;47.808;12.482;2022-10-16T00:40:55;4.03;;;2.08;;
34645;SDS011;20857;47.808;12.482;2022-10-16T00:46:23;3.65;;;1.50;;
34645;SDS011;20857;47.808;12.482;2022-10-16T00:49:07;2.75;;;1.80;;
34645;SDS011;20857;47.808;12.482;2022-10-16T00:51:37;5.03;;;1.88;;
34645;SDS011;20857;47.808;12.482;2022-10-16T00:54:10;3.78;;;1.90;;
34645;SDS011;20857;47.808;12.482;2022-10-16T00:56:39;4.47;;;1.83;;
34645;SDS011;20857;47.808;12.482;2022-10-16T00:59:09;5.25;;;1.63;;
34645;SDS011;20857;47.808;12.482;2022-10-16T01:01:49;4.32;;;2.10;;
34645;SDS011;20857;47.808;12.482;2022-10-16T01:04:15;3.05;;;1.55;;
34645;SDS011;20857;47.808;12.482;2022-10-16T01:06:55;2.83;;;1.50;;
34645;SDS011;20857;47.808;12.482;2022-10-16T01:09:41;1.98;;;1.40;;
34645;SDS011;20857;47.808;12.482;2022-10-16T01:12:18;5.40;;;1.48;;
34645;SDS011;20857;47.808;12.482;2022-10-16T01:15:04;4.30;;;1.77;;
34645;SDS011;20857;47.808;12.482;2022-10-16T01:18:05;3.00;;;1.63;;
34645;SDS011;20857;47.808;12.482;2022-10-16T01:23:21;4.72;;;1.45;;
34645;SDS011;20857;47.808;12.482;2022-10-16T01:28:55;5.05;;;1.50;;
34645;SDS011;20857;47.808;12.482;2022-10-16T01:31:25;4.90;;;1.50;;
34645;SDS011;20857;47.808;12.482;2022-10-16T01:34:08;2.25;;;1.85;;
34645;SDS011;20857;47.808;12.482;2022-10-16T01:37:04;9.32;;;1.67;;
34645;SDS011;20857;47.808;12.482;2022-10-16T01:39:33;3.03;;;2.05;;
34645;SDS011;20857;47.808;12.482;2022-10-16T01:42:09;1.50;;;1.40;;
34645;SDS011;20857;47.808;12.482;2022-10-16T01:44:38;3.97;;;1.60;;
34645;SDS011;20857;47.808;12.482;2022-10-16T01:47:07;5.93;;;1.85;;
34645;SDS011;20857;47.808;12.482;2022-10-16T01:49:35;5.65;;;2.00;;
34645;SDS011;20857;47.808;12.482;2022-10-16T01:52:05;2.13;;;1.55;;
34645;SDS011;20857;47.808;12.482;2022-10-16T01:54:34;3.78;;;1.50;;
34645;SDS011;20857;47.808;12.482;2022-10-16T01:57:03;1.63;;;1.50;;
34645;SDS011;20857;47.808;12.482;2022-10-16T01:59:31;3.65;;;1.90;;
34645;SDS011;20857;47.808;12.482;2022-10-16T02:02:01;3.35;;;1.63;;
34645;SDS011;20857;47.808;12.482;2022-10-16T02:04:32;3.53;;;1.70;;
34645;SDS011;20857;47.808;12.482;2022-10-16T02:07:01;2.72;;;1.80;;
34645;SDS011;20857;47.808;12.482;2022-10-16T02:09:27;4.63;;;1.67;;
34645;SDS011;20857;47.808;12.482;2022-10-16T02:11:54;2.85;;;1.27;;
34645;SDS011;20857;47.808;12.482;2022-10-16T02:14:22;2.95;;;2.08;;
34645;SDS011;20857;47.808;12.482;2022-10-16T02:16:49;2.55;;;1.67;;
34645;SDS011;20857;47.808;12.482;2022-10-16T02:19:15;1.95;;;1.65;;
34645;SDS011;20857;47.808;12.482;2022-10-16T02:21:58;3.03;;;1.73;;
34645;SDS011;20857;47.808;12.482;2022-10-16T02:29:33;5.57;;;1.90;;
34645;SDS011;20857;47.808;12.482;2022-10-16T02:34:31;5.57;;;1.70;;
34645;SDS011;20857;47.808;12.482;2022-10-16T02:37:00;1.70;;;1.38;;
34645;SDS011;20857;47.808;12.482;2022-10-16T02:39:28;1.65;;;1.55;;
34645;SDS011;20857;47.808;12.482;2022-10-16T02:41:54;2.45;;;1.67;;
34645;SDS011;20857;47.808;12.482;2022-10-16T02:44:20;2.17;;;1.95;;
34645;SDS011;20857;47.808;12.482;2022-10-16T02:46:47;4.60;;;1.65;;
34645;SDS011;20857;47.808;12.482;2022-10-16T02:49:12;2.22;;;1.65;;
34645;SDS011;20857;47.808;12.482;2022-10-16T02:51:38;2.90;;;1.90;;
34645;SDS011;20857;47.808;12.482;2022-10-16T02:54:03;3.10;;;1.92;;
34645;SDS011;20857;47.808;12.482;2022-10-16T02:56:29;1.50;;;1.40;;
34645;SDS011;20857;47.808;12.482;2022-10-16T02:58:55;2.25;;;1.60;;
34645;SDS011;20857;47.808;12.482;2022-10-16T03:01:21;3.40;;;1.75;;
34645;SDS011;20857;47.808;12.482;2022-10-16T03:03:47;5.32;;;1.70;;
34645;SDS011;20857;47.808;12.482;2022-10-16T03:06:13;3.13;;;1.77;;
34645;SDS011;20857;47.808;12.482;2022-10-16T03:08:38;2.83;;;2.30;;
34645;SDS011;20857;47.808;12.482;2022-10-16T03:11:04;5.75;;;2.05;;
34645;SDS011;20857;47.808;12.482;2022-10-16T03:13:30;1.80;;;1.70;;
34645;SDS011;20857;47.808;12.482;2022-10-16T03:15:55;8.73;;;2.22;;
34645;SDS011;20857;47.808;12.482;2022-10-16T03:18:21;2.60;;;2.05;;
34645;SDS011;20857;47.808;12.482;2022-10-16T03:20:46;2.00;;;1.80;;
34645;SDS011;20857;47.808;12.482;2022-10-16T03:23:12;2.67;;;2.05;;
34645;SDS011;20857;47.808;12.482;2022-10-16T03:25:37;2.53;;;1.95;;
34645;SDS011;20857;47.808;12.482;2022-10-16T03:28:04;5.10;;;2.25;;
34645;SDS011;20857;47.808;12.482;2022-10-16T03:30:30;3.75;;;1.73;;
34645;SDS011;20857;47.808;12.482;2022-10-16T03:32:55;1.80;;;1.70;;
34645;SDS011;20857;47.808;12.482;2022-10-16T03:35:21;3.83;;;1.92;;
34645;SDS011;20857;47.808;12.482;2022-10-16T03:37:48;2.92;;;1.75;;
34645;SDS011;20857;47.808;12.482;2022-10-16T03:40:14;2.05;;;1.85;;
34645;SDS011;20857;47.808;12.482;2022-10-16T03:42:40;1.77;;;1.63;;
34645;SDS011;20857;47.808;12.482;2022-10-16T03:45:07;3.42;;;2.15;;
34645;SDS011;20857;47.808;12.482;2022-10-16T03:47:32;4.22;;;1.83;;
34645;SDS011;20857;47.808;12.482;2022-10-16T03:49:58;8.80;;;1.98;;
34645;SDS011;20857;47.808;12.482;2022-10-16T03:52:24;1.90;;;1.58;;
34645;SDS011;20857;47.808;12.482;2022-10-16T03:54:50;1.75;;;1.60;;
34645;SDS011;20857;47.808;12.482;2022-10-16T03:57:16;2.33;;;1.80;;
34645;SDS011;20857;47.808;12.482;2022-10-16T03:59:42;2.05;;;1.73;;
34645;SDS011;20857;47.808;12.482;2022-10-16T04:02:08;4.32;;;1.88;;
34645;SDS011;20857;47.808;12.482;2022-10-16T04:04:34;4.05;;;1.80;;
34645;SDS011;20857;47.808;12.482;2022-10-16T04:06:59;2.22;;;1.83;;
34645;SDS011;20857;47.808;12.482;2022-10-16T04:09:25;3.17;;;1.70;;
34645;SDS011;20857;47.808;12.482;2022-10-16T04:11:51;3.22;;;1.60;;
34645;SDS011;20857;47.808;12.482;2022-10-16T04:14:16;3.75;;;1.55;;
34645;SDS011;20857;47.808;12.482;2022-10-16T04:16:42;2.17;;;1.80;;
34645;SDS011;20857;47.808;12.482;2022-10-16T04:19:08;2.33;;;1.92;;
34645;SDS011;20857;47.808;12.482;2022-10-16T04:21:34;2.25;;;1.70;;
34645;SDS011;20857;47.808;12.482;2022-10-16T04:24:00;2.25;;;1.67;;
34645;SDS011;20857;47.808;12.482;2022-10-16T04:26:26;1.75;;;1.65;;
34645;SDS011;20857;47.808;12.482;2022-10-16T04:28:51;2.28;;;1.58;;
34645;SDS011;20857;47.808;12.482;2022-10-16T04:31:17;3.00;;;1.58;;
34645;SDS011;20857;47.808;12.482;2022-10-16T04:33:43;2.35;;;1.80;;
34645;SDS011;20857;47.808;12.482;2022-10-16T04:36:09;5.68;;;1.60;;
34645;SDS011;20857;47.808;12.482;2022-10-16T04:38:34;2.70;;;1.75;;
34645;SDS011;20857;47.808;12.482;2022-10-16T04:41:02;1.63;;;1.52;;
34645;SDS011;20857;47.808;12.482;2022-10-16T04:43:28;4.03;;;1.70;;
34645;SDS011;20857;47.808;12.482;2022-10-16T04:45:54;5.32;;;1.63;;
34645;SDS011;20857;47.808;12.482;2022-10-16T04:48:20;1.55;;;1.40;;
34645;SDS011;20857;47.808;12.482;2022-10-16T04:50:45;1.92;;;1.65;;
34645;SDS011;20857;47.808;12.482;2022-10-16T04:53:11;6.63;;;1.75;;
34645;SDS011;20857;47.808;12.482;2022-10-16T04:55:37;7.07;;;1.90;;
34645;SDS011;20857;47.808;12.482;2022-10-16T04:58:03;2.53;;;1.65;;
34645;SDS011;20857;47.808;12.482;2022-10-16T05:00:29;3.42;;;1.98;;
34645;SDS011;20857;47.808;12.482;2022-10-16T05:02:54;1.73;;;1.23;;
34645;SDS011;20857;47.808;12.482;2022-10-16T05:05:20;2.97;;;2.00;;
34645;SDS011;20857;47.808;12.482;2022-10-16T05:07:46;2.35;;;1.25;;
34645;SDS011;20857;47.808;12.482;2022-10-16T05:10:13;2.05;;;1.58;;
34645;SDS011;20857;47.808;12.482;2022-10-16T05:12:38;5.28;;;1.73;;
34645;SDS011;20857;47.808;12.482;2022-10-16T05:15:04;3.58;;;1.83;;
34645;SDS011;20857;47.808;12.482;2022-10-16T05:17:30;1.70;;;1.45;;
34645;SDS011;20857;47.808;12.482;2022-10-16T05:19:56;2.63;;;1.67;;
34645;SDS011;20857;47.808;12.482;2022-10-16T05:22:21;2.10;;;1.60;;
34645;SDS011;20857;47.808;12.482;2022-10-16T05:24:47;2.45;;;1.73;;
34645;SDS011;20857;47.808;12.482;2022-10-16T05:27:12;1.85;;;1.50;;
34645;SDS011;20857;47.808;12.482;2022-10-16T05:29:44;2.15;;;1.63;;
34645;SDS011;20857;47.808;12.482;2022-10-16T05:32:13;2.10;;;1.90;;
34645;SDS011;20857;47.808;12.482;2022-10-16T05:34:40;4.60;;;3.30;;
34645;SDS011;20857;47.808;12.482;2022-10-16T05:37:06;4.10;;;3.25;;
34645;SDS011;20857;47.808;12.482;2022-10-16T05:39:31;14.68;;;7.93;;
34645;SDS011;20857;47.808;12.482;2022-10-16T05:41:57;11.73;;;7.07;;
34645;SDS011;20857;47.808;12.482;2022-10-16T05:44:22;7.80;;;4.72;;
34645;SDS011;20857;47.808;12.482;2022-10-16T05:46:48;3.70;;;1.73;;
34645;SDS011;20857;47.808;12.482;2022-10-16T05:49:14;3.72;;;1.70;;
34645;SDS011;20857;47.808;12.482;2022-10-16T05:51:39;5.63;;;1.92;;
34645;SDS011;20857;47.808;12.482;2022-10-16T05:54:06;2.80;;;1.73;;
34645;SDS011;20857;47.808;12.482;2022-10-16T05:56:31;2.65;;;1.77;;
34645;SDS011;20857;47.808;12.482;2022-10-16T05:58:57;3.70;;;2.05;;
34645;SDS011;20857;47.808;12.482;2022-10-16T06:01:23;5.47;;;2.65;;
34645;SDS011;20857;47.808;12.482;2022-10-16T06:03:49;13.48;;;3.83;;
34645;SDS011;20857;47.808;12.482;2022-10-16T06:06:17;7.38;;;2.78;;
34645;SDS011;20857;47.808;12.482;2022-10-16T06:08:46;6.78;;;4.22;;
34645;SDS011;20857;47.808;12.482;2022-10-16T06:11:17;9.38;;;6.30;;
34645;SDS011;20857;47.808;12.482;2022-10-16T06:16:11;7.15;;;2.20;;
34645;SDS011;20857;47.808;12.482;2022-10-16T06:18:37;5.00;;;1.70;;
34645;SDS011;20857;47.808;12.482;2022-10-16T06:21:07;4.18;;;1.90;;
34645;SDS011;20857;47.808;12.482;2022-10-16T06:26:07;3.97;;;1.50;;
34645;SDS011;20857;47.808;12.482;2022-10-16T06:28:37;4.90;;;2.00;;
34645;SDS011;20857;47.808;12.482;2022-10-16T06:31:04;3.47;;;1.67;;
34645;SDS011;20857;47.808;12.482;2022-10-16T06:33:31;2.38;;;1.70;;
34645;SDS011;20857;47.808;12.482;2022-10-16T06:36:01;20.23;;;1.65;;
34645;SDS011;20857;47.808;12.482;2022-10-16T06:38:31;2.40;;;1.52;;
34645;SDS011;20857;47.808;12.482;2022-10-16T06:40:57;3.25;;;1.70;;
34645;SDS011;20857;47.808;12.482;2022-10-16T06:43:23;1.88;;;1.67;;
34645;SDS011;20857;47.808;12.482;2022-10-16T06:45:55;2.55;;;1.20;;
34645;SDS011;20857;47.808;12.482;2022-10-16T06:48:23;3.10;;;1.30;;
34645;SDS011;20857;47.808;12.482;2022-10-16T06:50:56;2.10;;;1.50;;
34645;SDS011;20857;47.808;12.482;2022-10-16T06:53:25;1.80;;;1.20;;
34645;SDS011;20857;47.808;12.482;2022-10-16T06:55:54;1.88;;;1.38;;
34645;SDS011;20857;47.808;12.482;2022-10-16T06:58:21;2.92;;;1.30;;
34645;SDS011;20857;47.808;12.482;2022-10-16T07:00:47;1.33;;;1.15;;
34645;SDS011;20857;47.808;12.482;2022-10-16T07:03:12;3.35;;;1.30;;
34645;SDS011;20857;47.808;12.482;2022-10-16T07:05:39;3.60;;;1.98;;
34645;SDS011;20857;47.808;12.482;2022-10-16T07:08:05;2.13;;;1.63;;
34645;SDS011;20857;47.808;12.482;2022-10-16T07:10:31;6.70;;;1.67;;
34645;SDS011;20857;47.808;12.482;2022-10-16T07:12:59;1.65;;;1.23;;
34645;SDS011;20857;47.808;12.482;2022-10-16T07:15:25;3.03;;;1.20;;
34645;SDS011;20857;47.808;12.482;2022-10-16T07:17:51;2.67;;;1.45;;
34645;SDS011;20857;47.808;12.482;2022-10-16T07:20:17;1.25;;;1.13;;
34645;SDS011;20857;47.808;12.482;2022-10-16T07:22:43;1.45;;;0.98;;
34645;SDS011;20857;47.808;12.482;2022-10-16T07:25:09;4.93;;;1.20;;
34645;SDS011;20857;47.808;12.482;2022-10-16T07:27:35;2.03;;;1.45;;
34645;SDS011;20857;47.808;12.482;2022-10-16T07:30:01;3.60;;;1.27;;
34645;SDS011;20857;47.808;12.482;2022-10-16T07:32:28;1.10;;;1.00;;
34645;SDS011;20857;47.808;12.482;2022-10-16T07:34:54;4.38;;;1.30;;
34645;SDS011;20857;47.808;12.482;2022-10-16T07:37:21;1.52;;;1.42;;
34645;SDS011;20857;47.808;12.482;2022-10-16T07:39:47;5.50;;;1.23;;
34645;SDS011;20857;47.808;12.482;2022-10-16T07:42:13;2.95;;;1.30;;
34645;SDS011;20857;47.808;12.482;2022-10-16T07:44:38;1.58;;;1.33;;
34645;SDS011;20857;47.808;12.482;2022-10-16T07:47:04;1.30;;;1.20;;
34645;SDS011;20857;47.808;12.482;2022-10-16T07:49:30;1.60;;;1.50;;
34645;SDS011;20857;47.808;12.482;2022-10-16T07:51:56;3.40;;;1.33;;
34645;SDS011;20857;47.808;12.482;2022-10-16T07:54:22;2.95;;;1.05;;
34645;SDS011;20857;47.808;12.482;2022-10-16T07:56:47;1.20;;;1.10;;
34645;SDS011;20857;47.808;12.482;2022-10-16T07:59:13;1.90;;;1.30;;
34645;SDS011;20857;47.808;12.482;2022-10-16T08:01:38;4.40;;;1.20;;
34645;SDS011;20857;47.808;12.482;2022-10-16T08:04:04;4.15;;;1.40;;
34645;SDS011;20857;47.808;12.482;2022-10-16T08:06:34;1.63;;;0.95;;
34645;SDS011;20857;47.808;12.482;2022-10-16T08:09:01;2.33;;;1.20;;
34645;SDS011;20857;47.808;12.482;2022-10-16T08:11:27;5.00;;;1.40;;
34645;SDS011;20857;47.808;12.482;2022-10-16T08:13:53;2.47;;;1.58;;
34645;SDS011;20857;47.808;12.482;2022-10-16T08:16:18;1.90;;;0.90;;
34645;SDS011;20857;47.808;12.482;2022-10-16T08:18:44;3.05;;;1.40;;
34645;SDS011;20857;47.808;12.482;2022-10-16T08:21:15;3.60;;;1.55;;
34645;SDS011;20857;47.808;12.482;2022-10-16T08:23:42;2.88;;;1.15;;
34645;SDS011;20857;47.808;12.482;2022-10-16T08:26:09;6.32;;;1.30;;
34645;SDS011;20857;47.808;12.482;2022-10-16T08:28:35;2.17;;;0.90;;
34645;SDS011;20857;47.808;12.482;2022-10-16T08:31:08;5.30;;;1.55;;
34645;SDS011;20857;47.808;12.482;2022-10-16T08:33:36;2.25;;;1.42;;
34645;SDS011;20857;47.808;12.482;2022-10-16T08:36:03;2.25;;;1.30;;
34645;SDS011;20857;47.808;12.482;2022-10-16T08:38:30;2.20;;;1.40;;
34645;SDS011;20857;47.808;12.482;2022-10-16T08:41:00;3.45;;;1.40;;
34645;SDS011;20857;47.808;12.482;2022-10-16T08:44:04;2.40;;;1.50;;
34645;SDS011;20857;47.808;12.482;2022-10-16T08:49:29;3.33;;;1.20;;
34645;SDS011;20857;47.808;12.482;2022-10-16T08:51:56;2.83;;;1.15;;
34645;SDS011;20857;47.808;12.482;2022-10-16T08:57:19;1.40;;;1.20;;
34645;SDS011;20857;47.808;12.482;2022-10-16T08:59:46;1.30;;;1.20;;
34645;SDS011;20857;47.808;12.482;2022-10-16T09:02:24;3.42;;;1.27;;
34645;SDS011;20857;47.808;12.482;2022-10-16T09:15:47;2.45;;;1.30;;
34645;SDS011;20857;47.808;12.482;2022-10-16T09:18:23;3.70;;;0.88;;
34645;SDS011;20857;47.808;12.482;2022-10-16T09:23:34;2.70;;;1.23;;
34645;SDS011;20857;47.808;12.482;2022-10-16T09:26:01;4.45;;;1.60;;
34645;SDS011;20857;47.808;12.482;2022-10-16T09:28:28;6.05;;;1.67;;
34645;SDS011;20857;47.808;12.482;2022-10-16T09:30:54;2.35;;;1.35;;
34645;SDS011;20857;47.808;12.482;2022-10-16T09:33:30;3.75;;;1.63;;
34645;SDS011;20857;47.808;12.482;2022-10-16T09:36:00;2.47;;;1.38;;
34645;SDS011;20857;47.808;12.482;2022-10-16T09:38:29;3.40;;;1.10;;
34645;SDS011;20857;47.808;12.482;2022-10-16T09:41:00;1.38;;;1.27;;
34645;SDS011;20857;47.808;12.482;2022-10-16T09:43:40;5.00;;;1.40;;
34645;SDS011;20857;47.808;12.482;2022-10-16T09:48:59;3.90;;;1.27;;
34645;SDS011;20857;47.808;12.482;2022-10-16T09:51:34;3.33;;;1.40;;
34645;SDS011;20857;47.808;12.482;2022-10-16T09:54:13;1.95;;;1.60;;
34645;SDS011;20857;47.808;12.482;2022-10-16T09:56:40;1.88;;;1.20;;
34645;SDS011;20857;47.808;12.482;2022-10-16T09:59:16;2.55;;;0.98;;
34645;SDS011;20857;47.808;12.482;2022-10-16T10:01:52;1.90;;;1.33;;
34645;SDS011;20857;47.808;12.482;2022-10-16T10:04:20;1.45;;;1.23;;
34645;SDS011;20857;47.808;12.482;2022-10-16T10:06:49;2.42;;;1.25;;
34645;SDS011;20857;47.808;12.482;2022-10-16T10:11:52;5.60;;;1.50;;
34645;SDS011;20857;47.808;12.482;2022-10-16T10:19:39;2.13;;;1.17;;
34645;SDS011;20857;47.808;12.482;2022-10-16T10:22:21;8.07;;;1.30;;
34645;SDS011;20857;47.808;12.482;2022-10-16T10:24:56;1.40;;;1.27;;
34645;SDS011;20857;47.808;12.482;2022-10-16T10:30:29;1.35;;;0.98;;
34645;SDS011;20857;47.808;12.482;2022-10-16T10:33:14;2.42;;;1.17;;
34645;SDS011;20857;47.808;12.482;2022-10-16T10:38:48;2.30;;;1.50;;
34645;SDS011;20857;47.808;12.482;2022-10-16T10:44:03;2.97;;;1.63;;
34645;SDS011;20857;47.808;12.482;2022-10-16T10:49:35;2.85;;;1.13;;
34645;SDS011;20857;47.808;12.482;2022-10-16T10:55:09;1.30;;;1.10;;
34645;SDS011;20857;47.808;12.482;2022-10-16T11:03:22;5.70;;;0.90;;
34645;SDS011;20857;47.808;12.482;2022-10-16T11:06:08;1.05;;;0.93;;
34645;SDS011;20857;47.808;12.482;2022-10-16T11:08:38;0.95;;;0.80;;
34645;SDS011;20857;47.808;12.482;2022-10-16T11:11:20;2.83;;;1.02;;
34645;SDS011;20857;47.808;12.482;2022-10-16T11:14:02;4.43;;;0.90;;
34645;SDS011;20857;47.808;12.482;2022-10-16T11:17:12;1.90;;;0.73;;
34645;SDS011;20857;47.808;12.482;2022-10-16T11:19:49;0.90;;;0.90;;
34645;SDS011;20857;47.808;12.482;2022-10-16T11:27:39;1.40;;;1.08;;
34645;SDS011;20857;47.808;12.482;2022-10-16T11:30:45;2.67;;;1.10;;
34645;SDS011;20857;47.808;12.482;2022-10-16T11:35:51;3.00;;;1.10;;
34645;SDS011;20857;47.808;12.482;2022-10-16T11:38:26;0.85;;;0.85;;
34645;SDS011;20857;47.808;12.482;2022-10-16T11:41:04;2.35;;;1.40;;
34645;SDS011;20857;47.808;12.482;2022-10-16T11:43:46;3.67;;;1.20;;
34645;SDS011;20857;47.808;12.482;2022-10-16T11:46:27;3.53;;;1.40;;
34645;SDS011;20857;47.808;12.482;2022-10-16T11:49:10;3.40;;;1.60;;
34645;SDS011;20857;47.808;12.482;2022-10-16T11:51:40;1.48;;;1.20;;
34645;SDS011;20857;47.808;12.482;2022-10-16T11:57:08;1.67;;;1.35;;
34645;SDS011;20857;47.808;12.482;2022-10-16T12:05:33;2.50;;;1.23;;
34645;SDS011;20857;47.808;12.482;2022-10-16T12:08:08;1.98;;;1.20;;
34645;SDS011;20857;47.808;12.482;2022-10-16T12:10:36;3.47;;;1.45;;
34645;SDS011;20857;47.808;12.482;2022-10-16T12:13:04;1.00;;;0.82;;
34645;SDS011;20857;47.808;12.482;2022-10-16T12:15:50;1.05;;;0.85;;
34645;SDS011;20857;47.808;12.482;2022-10-16T12:18:22;2.63;;;1.38;;
34645;SDS011;20857;47.808;12.482;2022-10-16T12:20:56;6.45;;;1.58;;
34645;SDS011;20857;47.808;12.482;2022-10-16T12:23:30;3.75;;;1.20;;
34645;SDS011;20857;47.808;12.482;2022-10-16T12:25:58;1.40;;;1.00;;
34645;SDS011;20857;47.808;12.482;2022-10-16T12:28:29;5.25;;;1.02;;
34645;SDS011;20857;47.808;12.482;2022-10-16T12:31:00;2.90;;;1.25;;
34645;SDS011;20857;47.808;12.482;2022-10-16T12:33:28;7.65;;;0.90;;
34645;SDS011;20857;47.808;12.482;2022-10-16T12:35:57;1.75;;;0.80;;
34645;SDS011;20857;47.808;12.482;2022-10-16T12:40:59;3.10;;;0.60;;
34645;SDS011;20857;47.808;12.482;2022-10-16T12:43:34;1.73;;;0.68;;
34645;SDS011;20857;47.808;12.482;2022-10-16T12:48:33;2.33;;;0.75;;
34645;SDS011;20857;47.808;12.482;2022-10-16T12:51:09;3.25;;;0.77;;
34645;SDS011;20857;47.808;12.482;2022-10-16T12:53:35;2.88;;;0.95;;
34645;SDS011;20857;47.808;12.482;2022-10-16T12:56:22;1.25;;;0.60;;
34645;SDS011;20857;47.808;12.482;2022-10-16T13:04:27;1.70;;;0.80;;
34645;SDS011;20857;47.808;12.482;2022-10-16T13:12:22;2.03;;;0.70;;
34645;SDS011;20857;47.808;12.482;2022-10-16T13:15:11;6.35;;;0.90;;
34645;SDS011;20857;47.808;12.482;2022-10-16T13:18:14;5.57;;;0.68;;
34645;SDS011;20857;47.808;12.482;2022-10-16T13:23:51;0.50;;;0.40;;
34645;SDS011;20857;47.808;12.482;2022-10-16T13:29:19;2.70;;;0.70;;
34645;SDS011;20857;47.808;12.482;2022-10-16T13:31:45;0.50;;;0.50;;
34645;SDS011;20857;47.808;12.482;2022-10-16T13:34:14;1.88;;;0.50;;
34645;SDS011;20857;47.808;12.482;2022-10-16T13:36:44;0.50;;;0.50;;
34645;SDS011;20857;47.808;12.482;2022-10-16T13:39:15;1.80;;;0.70;;
34645;SDS011;20857;47.808;12.482;2022-10-16T13:44:29;1.92;;;0.32;;
34645;SDS011;20857;47.808;12.482;2022-10-16T13:47:01;0.50;;;0.30;;
34645;SDS011;20857;47.808;12.482;2022-10-16T13:49:27;1.42;;;0.47;;
34645;SDS011;20857;47.808;12.482;2022-10-16T13:51:59;1.02;;;0.40;;
34645;SDS011;20857;47.808;12.482;2022-10-16T13:54:25;1.38;;;0.50;;
34645;SDS011;20857;47.808;12.482;2022-10-16T13:56:53;1.13;;;0.45;;
34645;SDS011;20857;47.808;12.482;2022-10-16T13:59:23;0.47;;;0.40;;
34645;SDS011;20857;47.808;12.482;2022-10-16T14:01:52;0.90;;;0.57;;
34645;SDS011;20857;47.808;12.482;2022-10-16T14:04:20;3.88;;;0.82;;
34645;SDS011;20857;47.808;12.482;2022-10-16T14:06:48;1.05;;;0.70;;
34645;SDS011;20857;47.808;12.482;2022-10-16T14:11:50;0.45;;;0.40;;
34645;SDS011;20857;47.808;12.482;2022-10-16T14:14:18;2.83;;;0.60;;
34645;SDS011;20857;47.808;12.482;2022-10-16T14:16:45;0.85;;;0.63;;
34645;SDS011;20857;47.808;12.482;2022-10-16T14:21:47;0.52;;;0.52;;
34645;SDS011;20857;47.808;12.482;2022-10-16T14:26:55;1.58;;;0.50;;
34645;SDS011;20857;47.808;12.482;2022-10-16T14:29:21;0.75;;;0.50;;
34645;SDS011;20857;47.808;12.482;2022-10-16T14:31:59;0.40;;;0.28;;
34645;SDS011;20857;47.808;12.482;2022-10-16T14:34:27;0.68;;;0.52;;
34645;SDS011;20857;47.808;12.482;2022-10-16T14:36:54;0.95;;;0.57;;
34645;SDS011;20857;47.808;12.482;2022-10-16T14:39:20;2.25;;;0.60;;
34645;SDS011;20857;47.808;12.482;2022-10-16T14:41:48;1.05;;;0.52;;
34645;SDS011;20857;47.808;12.482;2022-10-16T14:44:16;2.80;;;0.65;;
34645;SDS011;20857;47.808;12.482;2022-10-16T14:46:43;2.85;;;0.60;;
34645;SDS011;20857;47.808;12.482;2022-10-16T14:51:36;0.63;;;0.50;;
34645;SDS011;20857;47.808;12.482;2022-10-16T14:54:03;1.23;;;0.50;;
34645;SDS011;20857;47.808;12.482;2022-10-16T14:56:42;0.88;;;0.50;;
34645;SDS011;20857;47.808;12.482;2022-10-16T14:59:27;2.22;;;0.47;;
34645;SDS011;20857;47.808;12.482;2022-10-16T15:02:00;1.00;;;0.75;;
34645;SDS011;20857;47.808;12.482;2022-10-16T15:04:46;1.92;;;0.70;;
34645;SDS011;20857;47.808;12.482;2022-10-16T15:07:12;0.38;;;0.38;;
34645;SDS011;20857;47.808;12.482;2022-10-16T15:09:38;5.40;;;0.90;;
34645;SDS011;20857;47.808;12.482;2022-10-16T15:12:04;1.63;;;0.80;;
34645;SDS011;20857;47.808;12.482;2022-10-16T15:14:30;3.03;;;0.60;;
34645;SDS011;20857;47.808;12.482;2022-10-16T15:16:55;1.50;;;0.77;;
34645;SDS011;20857;47.808;12.482;2022-10-16T15:19:21;3.40;;;1.05;;
34645;SDS011;20857;47.808;12.482;2022-10-16T15:21:47;2.92;;;0.80;;
34645;SDS011;20857;47.808;12.482;2022-10-16T15:24:13;8.05;;;1.17;;
34645;SDS011;20857;47.808;12.482;2022-10-16T15:26:39;1.52;;;0.70;;
34645;SDS011;20857;47.808;12.482;2022-10-16T15:29:05;8.00;;;0.93;;
34645;SDS011;20857;47.808;12.482;2022-10-16T15:31:31;3.08;;;0.70;;
34645;SDS011;20857;47.808;12.482;2022-10-16T15:33:56;1.75;;;0.90;;
34645;SDS011;20857;47.808;12.482;2022-10-16T15:36:33;2.42;;;0.90;;
34645;SDS011;20857;47.808;12.482;2022-10-16T15:39:02;4.93;;;2.20;;
34645;SDS011;20857;47.808;12.482;2022-10-16T15:41:28;4.05;;;2.10;;
34645;SDS011;20857;47.808;12.482;2022-10-16T15:43:53;7.68;;;2.08;;
34645;SDS011;20857;47.808;12.482;2022-10-16T15:46:20;6.05;;;2.72;;
34645;SDS011;20857;47.808;12.482;2022-10-16T15:48:47;5.22;;;1.73;;
34645;SDS011;20857;47.808;12.482;2022-10-16T15:51:15;3.65;;;1.50;;
34645;SDS011;20857;47.808;12.482;2022-10-16T15:53:41;2.67;;;1.33;;
34645;SDS011;20857;47.808;12.482;2022-10-16T15:56:07;2.15;;;1.25;;
34645;SDS011;20857;47.808;12.482;2022-10-16T15:58:34;6.25;;;1.60;;
34645;SDS011;20857;47.808;12.482;2022-10-16T16:01:00;5.50;;;1.80;;
34645;SDS011;20857;47.808;12.482;2022-10-16T16:03:27;4.55;;;2.00;;
34645;SDS011;20857;47.808;12.482;2022-10-16T16:05:53;6.65;;;2.05;;
34645;SDS011;20857;47.808;12.482;2022-10-16T16:08:19;3.30;;;1.67;;
34645;SDS011;20857;47.808;12.482;2022-10-16T16:10:45;5.20;;;1.90;;
34645;SDS011;20857;47.808;12.482;2022-10-16T16:13:11;6.32;;;2.03;;
34645;SDS011;20857;47.808;12.482;2022-10-16T16:15:39;9.30;;;2.47;;
34645;SDS011;20857;47.808;12.482;2022-10-16T16:18:07;9.82;;;2.33;;
34645;SDS011;20857;47.808;12.482;2022-10-16T16:20:34;5.43;;;1.70;;
34645;SDS011;20857;47.808;12.482;2022-10-16T16:22:59;9.07;;;2.10;;
34645;SDS011;20857;47.808;12.482;2022-10-16T16:25:25;5.05;;;2.60;;
34645;SDS011;20857;47.808;12.482;2022-10-16T16:27:51;7.00;;;2.22;;
34645;SDS011;20857;47.808;12.482;2022-10-16T16:30:16;10.45;;;2.67;;
34645;SDS011;20857;47.808;12.482;2022-10-16T16:32:44;13.10;;;2.95;;
34645;SDS011;20857;47.808;12.482;2022-10-16T16:35:11;4.90;;;3.08;;
34645;SDS011;20857;47.808;12.482;2022-10-16T16:37:38;8.35;;;3.67;;
34645;SDS011;20857;47.808;12.482;2022-10-16T16:40:05;9.95;;;3.95;;
34645;SDS011;20857;47.808;12.482;2022-10-16T16:42:34;17.63;;;4.30;;
34645;SDS011;20857;47.808;12.482;2022-10-16T16:44:59;11.98;;;5.13;;
34645;SDS011;20857;47.808;12.482;2022-10-16T16:47:25;15.52;;;4.75;;
34645;SDS011;20857;47.808;12.482;2022-10-16T16:49:51;13.13;;;4.32;;